sensor_id;sensor_type;location;lat;lon;timestamp;pressure;altitude;pressure_sealevel;temperature;humidity
23281;BME280;11809;56.390;-3.266;2022-09-28T00:01:14;99681.81;;;16.29;55.83
23281;BME280;11809;56.390;-3.266;2022-09-28T00:03:42;99678.44;;;16.27;55.78
23281;BME280;11809;56.390;-3.266;2022-09-28T00:06:12;99678.69;;;16.24;55.92
23281;BME280;11809;56.390;-3.266;2022-09-28T00:08:40;99683.13;;;16.24;55.96
23281;BME280;11809;56.390;-3.266;2022-09-28T00:11:09;99686.88;;;16.21;56.09
23281;BME280;11809;56.390;-3.266;2022-09-28T00:13:38;99693.88;;;16.22;56.13
23281;BME280;11809;56.390;-3.266;2022-09-28T00:16:08;99697.59;;;16.20;55.88
23281;BME280;11809;56.390;-3.266;2022-09-28T00:18:36;99694.22;;;16.18;56.01
23281;BME280;11809;56.390;-3.266;2022-09-28T00:21:06;99703.25;;;16.15;56.16
23281;BME280;11809;56.390;-3.266;2022-09-28T00:23:35;99702.53;;;16.13;56.18
23281;BME280;11809;56.390;-3.266;2022-09-28T00:26:22;99700.09;;;16.10;56.10
23281;BME280;11809;56.390;-3.266;2022-09-28T00:28:54;99705.66;;;16.07;56.12
23281;BME280;11809;56.390;-3.266;2022-09-28T00:31:21;99715.44;;;16.07;56.25
23281;BME280;11809;56.390;-3.266;2022-09-28T00:33:50;99710.97;;;16.07;56.10
23281;BME280;11809;56.390;-3.266;2022-09-28T00:36:18;99717.59;;;16.02;55.97
23281;BME280;11809;56.390;-3.266;2022-09-28T00:38:44;99715.75;;;16.02;55.95
23281;BME280;11809;56.390;-3.266;2022-09-28T00:41:12;99718.41;;;16.02;56.00
23281;BME280;11809;56.390;-3.266;2022-09-28T00:43:39;99717.69;;;16.00;56.15
23281;BME280;11809;56.390;-3.266;2022-09-28T00:46:33;99713.47;;;15.98;55.91
23281;BME280;11809;56.390;-3.266;2022-09-28T00:49:04;99710.94;;;15.96;55.95
23281;BME280;11809;56.390;-3.266;2022-09-28T00:51:36;99707.56;;;15.94;56.15
23281;BME280;11809;56.390;-3.266;2022-09-28T00:54:07;99712.03;;;15.94;56.00
23281;BME280;11809;56.390;-3.266;2022-09-28T00:56:37;99712.97;;;15.93;55.88
23281;BME280;11809;56.390;-3.266;2022-09-28T00:59:06;99712.38;;;15.89;56.17
23281;BME280;11809;56.390;-3.266;2022-09-28T01:01:35;99726.59;;;15.88;56.04
23281;BME280;11809;56.390;-3.266;2022-09-28T01:04:02;99715.38;;;15.85;56.06
23281;BME280;11809;56.390;-3.266;2022-09-28T01:06:33;99730.41;;;15.84;56.01
23281;BME280;11809;56.390;-3.266;2022-09-28T01:09:04;99731.41;;;15.83;56.21
23281;BME280;11809;56.390;-3.266;2022-09-28T01:11:35;99729.84;;;15.81;56.11
23281;BME280;11809;56.390;-3.266;2022-09-28T01:14:05;99730.66;;;15.81;56.49
23281;BME280;11809;56.390;-3.266;2022-09-28T01:22:29;99732.81;;;15.76;56.48
23281;BME280;11809;56.390;-3.266;2022-09-28T01:28:14;99731.38;;;15.72;56.62
23281;BME280;11809;56.390;-3.266;2022-09-28T01:30:48;99742.69;;;15.74;56.73
23281;BME280;11809;56.390;-3.266;2022-09-28T01:33:23;99740.03;;;15.74;56.49
23281;BME280;11809;56.390;-3.266;2022-09-28T01:35:57;99744.63;;;15.72;56.60
23281;BME280;11809;56.390;-3.266;2022-09-28T01:38:32;99743.13;;;15.68;56.77
23281;BME280;11809;56.390;-3.266;2022-09-28T01:41:02;99747.50;;;15.69;56.75
23281;BME280;11809;56.390;-3.266;2022-09-28T01:43:34;99741.47;;;15.67;56.86
23281;BME280;11809;56.390;-3.266;2022-09-28T01:46:13;99745.78;;;15.68;57.07
23281;BME280;11809;56.390;-3.266;2022-09-28T01:51:22;99746.00;;;15.65;57.00
23281;BME280;11809;56.390;-3.266;2022-09-28T01:53:54;99744.13;;;15.67;57.03
23281;BME280;11809;56.390;-3.266;2022-09-28T01:56:44;99747.72;;;15.66;57.17
23281;BME280;11809;56.390;-3.266;2022-09-28T01:59:18;99752.28;;;15.64;57.21
23281;BME280;11809;56.390;-3.266;2022-09-28T02:01:54;99754.09;;;15.63;57.35
23281;BME280;11809;56.390;-3.266;2022-09-28T02:04:34;99754.94;;;15.64;57.17
23281;BME280;11809;56.390;-3.266;2022-09-28T02:07:06;99755.88;;;15.63;57.38
23281;BME280;11809;56.390;-3.266;2022-09-28T02:09:43;99756.03;;;15.61;57.29
23281;BME280;11809;56.390;-3.266;2022-09-28T02:12:22;99753.47;;;15.60;57.34
23281;BME280;11809;56.390;-3.266;2022-09-28T02:14:53;99756.13;;;15.60;57.26
23281;BME280;11809;56.390;-3.266;2022-09-28T02:17:24;99749.03;;;15.60;57.30
23281;BME280;11809;56.390;-3.266;2022-09-28T02:19:51;99751.66;;;15.60;57.48
23281;BME280;11809;56.390;-3.266;2022-09-28T02:22:26;99751.66;;;15.60;57.48
23281;BME280;11809;56.390;-3.266;2022-09-28T02:27:33;99761.53;;;15.58;57.46
23281;BME280;11809;56.390;-3.266;2022-09-28T02:30:03;99760.81;;;15.56;57.58
23281;BME280;11809;56.390;-3.266;2022-09-28T02:32:32;99763.56;;;15.55;57.65
23281;BME280;11809;56.390;-3.266;2022-09-28T02:35:00;99759.25;;;15.54;57.67
23281;BME280;11809;56.390;-3.266;2022-09-28T02:37:30;99762.84;;;15.53;57.64
23281;BME280;11809;56.390;-3.266;2022-09-28T02:39:57;99759.25;;;15.54;57.58
23281;BME280;11809;56.390;-3.266;2022-09-28T02:42:43;99759.56;;;15.49;57.51
23281;BME280;11809;56.390;-3.266;2022-09-28T03:00:06;99758.00;;;15.47;57.67
23281;BME280;11809;56.390;-3.266;2022-09-28T03:06:02;99763.47;;;15.44;57.91
23281;BME280;11809;56.390;-3.266;2022-09-28T03:08:42;99770.47;;;15.45;57.91
23281;BME280;11809;56.390;-3.266;2022-09-28T03:11:25;99756.50;;;15.43;57.91
23281;BME280;11809;56.390;-3.266;2022-09-28T03:13:55;99764.53;;;15.41;57.84
23281;BME280;11809;56.390;-3.266;2022-09-28T03:16:22;99769.97;;;15.40;57.71
23281;BME280;11809;56.390;-3.266;2022-09-28T03:18:49;99767.31;;;15.40;57.80
23281;BME280;11809;56.390;-3.266;2022-09-28T03:21:16;99770.91;;;15.39;57.70
23281;BME280;11809;56.390;-3.266;2022-09-28T03:23:43;99772.84;;;15.37;57.86
23281;BME280;11809;56.390;-3.266;2022-09-28T03:26:10;99770.31;;;15.35;57.71
23281;BME280;11809;56.390;-3.266;2022-09-28T03:28:38;99766.09;;;15.33;57.76
23281;BME280;11809;56.390;-3.266;2022-09-28T03:31:06;99761.75;;;15.32;57.81
23281;BME280;11809;56.390;-3.266;2022-09-28T03:33:33;99764.25;;;15.33;57.96
23281;BME280;11809;56.390;-3.266;2022-09-28T03:36:00;99769.69;;;15.32;57.85
23281;BME280;11809;56.390;-3.266;2022-09-28T03:38:27;99770.63;;;15.31;57.72
23281;BME280;11809;56.390;-3.266;2022-09-28T03:40:58;99774.03;;;15.33;57.83
23281;BME280;11809;56.390;-3.266;2022-09-28T03:43:26;99779.44;;;15.31;57.70
23281;BME280;11809;56.390;-3.266;2022-09-28T03:45:57;99780.28;;;15.32;57.91
23281;BME280;11809;56.390;-3.266;2022-09-28T03:48:29;99777.75;;;15.30;58.10
23281;BME280;11809;56.390;-3.266;2022-09-28T03:51:00;99789.16;;;15.31;57.81
23281;BME280;11809;56.390;-3.266;2022-09-28T03:53:28;99782.19;;;15.30;57.94
23281;BME280;11809;56.390;-3.266;2022-09-28T03:56:02;99788.34;;;15.30;58.10
23281;BME280;11809;56.390;-3.266;2022-09-28T03:58:30;99785.78;;;15.29;58.09
23281;BME280;11809;56.390;-3.266;2022-09-28T04:01:04;99789.28;;;15.29;58.15
23281;BME280;11809;56.390;-3.266;2022-09-28T04:03:31;99790.13;;;15.30;58.12
23281;BME280;11809;56.390;-3.266;2022-09-28T04:05:59;99791.09;;;15.29;58.08
23281;BME280;11809;56.390;-3.266;2022-09-28T04:08:26;99791.22;;;15.27;58.46
23281;BME280;11809;56.390;-3.266;2022-09-28T04:10:57;99791.31;;;15.26;58.27
23281;BME280;11809;56.390;-3.266;2022-09-28T04:13:25;99793.00;;;15.27;58.43
23281;BME280;11809;56.390;-3.266;2022-09-28T04:15:53;99778.78;;;15.28;58.32
23281;BME280;11809;56.390;-3.266;2022-09-28T04:18:22;99782.41;;;15.27;58.37
23281;BME280;11809;56.390;-3.266;2022-09-28T04:23:26;99779.88;;;15.25;58.17
23281;BME280;11809;56.390;-3.266;2022-09-28T04:25:53;99780.72;;;15.26;58.38
23281;BME280;11809;56.390;-3.266;2022-09-28T04:28:20;99778.19;;;15.24;58.29
23281;BME280;11809;56.390;-3.266;2022-09-28T04:31:17;99768.69;;;15.22;58.48
23281;BME280;11809;56.390;-3.266;2022-09-28T04:33:44;99772.28;;;15.21;58.41
23281;BME280;11809;56.390;-3.266;2022-09-28T04:36:11;99777.56;;;15.21;58.45
23281;BME280;11809;56.390;-3.266;2022-09-28T04:38:39;99778.50;;;15.19;58.48
23281;BME280;11809;56.390;-3.266;2022-09-28T04:41:19;99774.19;;;15.18;58.40
23281;BME280;11809;56.390;-3.266;2022-09-28T04:43:49;99779.47;;;15.18;58.32
23281;BME280;11809;56.390;-3.266;2022-09-28T04:46:16;99783.94;;;15.18;58.31
23281;BME280;11809;56.390;-3.266;2022-09-28T04:48:43;99785.63;;;15.19;58.31
23281;BME280;11809;56.390;-3.266;2022-09-28T04:51:10;99782.22;;;15.17;58.42
23281;BME280;11809;56.390;-3.266;2022-09-28T04:53:37;99781.41;;;15.16;58.63
23281;BME280;11809;56.390;-3.266;2022-09-28T04:56:06;99785.84;;;15.16;58.35
23281;BME280;11809;56.390;-3.266;2022-09-28T04:58:34;99781.41;;;15.16;58.53
23281;BME280;11809;56.390;-3.266;2022-09-28T05:01:05;99779.69;;;15.15;58.43
23281;BME280;11809;56.390;-3.266;2022-09-28T05:03:33;99779.69;;;15.15;58.69
23281;BME280;11809;56.390;-3.266;2022-09-28T05:06:00;99772.69;;;15.14;58.81
23281;BME280;11809;56.390;-3.266;2022-09-28T05:08:27;99779.81;;;15.14;58.79
23281;BME280;11809;56.390;-3.266;2022-09-28T05:11:06;99780.78;;;15.13;58.65
23281;BME280;11809;56.390;-3.266;2022-09-28T05:13:40;99778.25;;;15.11;58.49
23281;BME280;11809;56.390;-3.266;2022-09-28T05:16:08;99757.50;;;15.05;58.77
23281;BME280;11809;56.390;-3.266;2022-09-28T05:18:35;99763.31;;;15.10;58.47
23281;BME280;11809;56.390;-3.266;2022-09-28T05:21:03;99771.25;;;15.10;59.12
23281;BME280;11809;56.390;-3.266;2022-09-28T05:23:34;99768.38;;;15.13;58.81
23281;BME280;11809;56.390;-3.266;2022-09-28T05:26:01;99768.25;;;15.15;58.83
23281;BME280;11809;56.390;-3.266;2022-09-28T05:28:30;99772.63;;;15.16;58.98
23281;BME280;11809;56.390;-3.266;2022-09-28T05:31:02;99762.97;;;15.15;59.02
23281;BME280;11809;56.390;-3.266;2022-09-28T05:33:30;99767.31;;;15.16;59.05
23281;BME280;11809;56.390;-3.266;2022-09-28T05:35:58;99765.75;;;15.13;58.85
23281;BME280;11809;56.390;-3.266;2022-09-28T05:38:28;99756.81;;;15.14;58.87
23281;BME280;11809;56.390;-3.266;2022-09-28T05:40:55;99764.75;;;15.14;59.39
23281;BME280;11809;56.390;-3.266;2022-09-28T05:43:23;99765.63;;;15.15;59.01
23281;BME280;11809;56.390;-3.266;2022-09-28T05:45:50;99769.13;;;15.15;59.43
23281;BME280;11809;56.390;-3.266;2022-09-28T05:48:21;99758.75;;;15.12;59.25
23281;BME280;11809;56.390;-3.266;2022-09-28T05:50:51;99752.50;;;15.13;59.50
23281;BME280;11809;56.390;-3.266;2022-09-28T05:53:19;99756.81;;;15.14;59.25
23281;BME280;11809;56.390;-3.266;2022-09-28T05:55:46;99755.16;;;15.13;59.19
23281;BME280;11809;56.390;-3.266;2022-09-28T05:58:13;99756.22;;;15.11;59.37
23281;BME280;11809;56.390;-3.266;2022-09-28T06:00:40;99752.50;;;15.13;59.38
23281;BME280;11809;56.390;-3.266;2022-09-28T06:03:11;99757.06;;;15.11;59.68
23281;BME280;11809;56.390;-3.266;2022-09-28T06:05:39;99760.53;;;15.12;59.25
23281;BME280;11809;56.390;-3.266;2022-09-28T06:08:07;99761.53;;;15.11;59.49
23281;BME280;11809;56.390;-3.266;2022-09-28T06:10:36;99767.66;;;15.11;59.43
23281;BME280;11809;56.390;-3.266;2022-09-28T06:13:03;99765.97;;;15.10;59.33
23281;BME280;11809;56.390;-3.266;2022-09-28T06:15:31;99763.31;;;15.10;59.45
23281;BME280;11809;56.390;-3.266;2022-09-28T06:18:01;99759.72;;;15.11;59.29
23281;BME280;11809;56.390;-3.266;2022-09-28T06:20:30;99772.09;;;15.11;59.35
23281;BME280;11809;56.390;-3.266;2022-09-28T06:22:58;99761.53;;;15.11;59.35
23281;BME280;11809;56.390;-3.266;2022-09-28T06:25:25;99764.38;;;15.08;59.34
23281;BME280;11809;56.390;-3.266;2022-09-28T06:28:08;99774.00;;;15.09;59.40
23281;BME280;11809;56.390;-3.266;2022-09-28T06:30:35;99761.00;;;15.06;59.66
23281;BME280;11809;56.390;-3.266;2022-09-28T06:33:05;99763.53;;;15.07;59.54
23281;BME280;11809;56.390;-3.266;2022-09-28T06:35:33;99765.22;;;15.08;59.57
23281;BME280;11809;56.390;-3.266;2022-09-28T06:38:01;99770.53;;;15.08;59.59
23281;BME280;11809;56.390;-3.266;2022-09-28T06:40:28;99775.81;;;15.08;59.59
23281;BME280;11809;56.390;-3.266;2022-09-28T06:42:59;99780.25;;;15.08;59.67
23281;BME280;11809;56.390;-3.266;2022-09-28T06:45:28;99775.81;;;15.08;59.64
23281;BME280;11809;56.390;-3.266;2022-09-28T06:47:59;99785.44;;;15.09;59.48
23281;BME280;11809;56.390;-3.266;2022-09-28T06:50:28;99771.25;;;15.10;59.29
23281;BME280;11809;56.390;-3.266;2022-09-28T06:52:59;99771.25;;;15.10;59.53
23281;BME280;11809;56.390;-3.266;2022-09-28T06:55:27;99783.63;;;15.10;59.42
23281;BME280;11809;56.390;-3.266;2022-09-28T06:58:05;99787.13;;;15.10;59.28
23281;BME280;11809;56.390;-3.266;2022-09-28T07:00:34;99782.78;;;15.09;59.70
23281;BME280;11809;56.390;-3.266;2022-09-28T07:03:04;99779.41;;;15.07;59.48
23281;BME280;11809;56.390;-3.266;2022-09-28T07:05:34;99775.91;;;15.07;59.49
23281;BME280;11809;56.390;-3.266;2022-09-28T07:08:03;99781.22;;;15.07;59.43
23281;BME280;11809;56.390;-3.266;2022-09-28T07:10:30;99783.00;;;15.06;59.64
23281;BME280;11809;56.390;-3.266;2022-09-28T07:13:00;99778.69;;;15.05;59.45
23281;BME280;11809;56.390;-3.266;2022-09-28T07:15:31;99776.88;;;15.06;59.52
23281;BME280;11809;56.390;-3.266;2022-09-28T07:17:59;99782.19;;;15.06;59.34
23281;BME280;11809;56.390;-3.266;2022-09-28T07:20:30;99787.47;;;15.06;59.68
23281;BME280;11809;56.390;-3.266;2022-09-28T07:23:06;99785.91;;;15.03;59.56
23281;BME280;11809;56.390;-3.266;2022-09-28T07:25:45;99779.97;;;15.00;59.48
23281;BME280;11809;56.390;-3.266;2022-09-28T07:28:14;99780.59;;;15.03;59.66
23281;BME280;11809;56.390;-3.266;2022-09-28T07:30:41;99786.72;;;15.04;59.49
23281;BME280;11809;56.390;-3.266;2022-09-28T07:33:12;99778.69;;;15.05;59.62
23281;BME280;11809;56.390;-3.266;2022-09-28T07:35:40;99775.06;;;15.06;59.55
23281;BME280;11809;56.390;-3.266;2022-09-28T07:38:09;99778.69;;;15.05;59.73
23281;BME280;11809;56.390;-3.266;2022-09-28T07:40:36;99775.31;;;15.03;59.86
23281;BME280;11809;56.390;-3.266;2022-09-28T07:43:23;99775.53;;;15.00;59.85
23281;BME280;11809;56.390;-3.266;2022-09-28T07:45:52;99778.91;;;15.02;59.86
23281;BME280;11809;56.390;-3.266;2022-09-28T07:48:22;99786.72;;;15.04;60.03
23281;BME280;11809;56.390;-3.266;2022-09-28T07:50:51;99781.53;;;15.02;59.87
23281;BME280;11809;56.390;-3.266;2022-09-28T07:53:19;99784.91;;;15.04;60.10
23281;BME280;11809;56.390;-3.266;2022-09-28T07:55:54;99789.28;;;15.05;60.08
23281;BME280;11809;56.390;-3.266;2022-09-28T07:58:21;99783.97;;;15.05;60.34
23281;BME280;11809;56.390;-3.266;2022-09-28T08:00:49;99786.41;;;15.08;60.07
23281;BME280;11809;56.390;-3.266;2022-09-28T08:03:18;99784.69;;;15.07;60.19
23281;BME280;11809;56.390;-3.266;2022-09-28T08:05:45;99786.50;;;15.07;59.92
23281;BME280;11809;56.390;-3.266;2022-09-28T08:08:13;99789.28;;;15.05;60.20
23281;BME280;11809;56.390;-3.266;2022-09-28T08:10:42;99784.69;;;15.07;60.07
23281;BME280;11809;56.390;-3.266;2022-09-28T08:13:13;99793.50;;;15.08;60.30
23281;BME280;11809;56.390;-3.266;2022-09-28T08:15:41;99788.06;;;15.09;60.24
23281;BME280;11809;56.390;-3.266;2022-09-28T08:18:09;99783.75;;;15.08;60.25
23281;BME280;11809;56.390;-3.266;2022-09-28T08:20:36;99787.34;;;15.07;60.11
23281;BME280;11809;56.390;-3.266;2022-09-28T08:23:22;99785.44;;;15.09;60.35
23281;BME280;11809;56.390;-3.266;2022-09-28T08:25:51;99781.84;;;15.10;60.38
23281;BME280;11809;56.390;-3.266;2022-09-28T08:28:22;99787.13;;;15.10;60.12
23281;BME280;11809;56.390;-3.266;2022-09-28T08:30:50;99800.25;;;15.12;60.24
23281;BME280;11809;56.390;-3.266;2022-09-28T08:33:18;99786.91;;;15.13;60.19
23281;BME280;11809;56.390;-3.266;2022-09-28T08:35:58;99786.06;;;15.13;60.10
23281;BME280;11809;56.390;-3.266;2022-09-28T08:38:28;99783.41;;;15.13;60.21
23281;BME280;11809;56.390;-3.266;2022-09-28T08:43:52;99772.69;;;15.14;60.24
23281;BME280;11809;56.390;-3.266;2022-09-28T08:46:24;99772.69;;;15.14;60.18
23281;BME280;11809;56.390;-3.266;2022-09-28T08:48:57;99785.84;;;15.16;60.04
23281;BME280;11809;56.390;-3.266;2022-09-28T08:57:14;99787.75;;;15.14;60.14
23281;BME280;11809;56.390;-3.266;2022-09-28T08:59:57;99781.63;;;15.13;60.50
23281;BME280;11809;56.390;-3.266;2022-09-28T09:02:36;99779.69;;;15.15;60.11
23281;BME280;11809;56.390;-3.266;2022-09-28T09:05:09;99775.34;;;15.14;60.48
23281;BME280;11809;56.390;-3.266;2022-09-28T09:18:54;99781.00;;;15.10;60.01
23281;BME280;11809;56.390;-3.266;2022-09-28T09:21:38;99776.41;;;15.12;59.97
23281;BME280;11809;56.390;-3.266;2022-09-28T09:24:26;99772.19;;;15.09;60.12
23281;BME280;11809;56.390;-3.266;2022-09-28T09:27:07;99767.53;;;15.13;60.26
23281;BME280;11809;56.390;-3.266;2022-09-28T09:41:40;99757.47;;;15.18;60.13
23281;BME280;11809;56.390;-3.266;2022-09-28T09:47:09;99770.69;;;15.18;60.23
23281;BME280;11809;56.390;-3.266;2022-09-28T09:55:32;99774.06;;;15.20;60.31
23281;BME280;11809;56.390;-3.266;2022-09-28T09:58:35;99766.97;;;15.21;60.25
23281;BME280;11809;56.390;-3.266;2022-09-28T10:01:11;99764.31;;;15.21;59.79
23281;BME280;11809;56.390;-3.266;2022-09-28T10:03:42;99765.91;;;15.23;59.87
23281;BME280;11809;56.390;-3.266;2022-09-28T10:06:15;99766.13;;;15.20;59.52
23281;BME280;11809;56.390;-3.266;2022-09-28T10:08:47;99756.59;;;15.17;59.98
23281;BME280;11809;56.390;-3.266;2022-09-28T10:11:17;99766.25;;;15.18;59.47
23281;BME280;11809;56.390;-3.266;2022-09-28T10:13:47;99764.66;;;15.16;59.46
23281;BME280;11809;56.390;-3.266;2022-09-28T10:16:16;99758.75;;;15.12;59.80
23281;BME280;11809;56.390;-3.266;2022-09-28T10:18:44;99762.13;;;15.14;60.23
23281;BME280;11809;56.390;-3.266;2022-09-28T10:21:17;99765.53;;;15.16;60.07
23281;BME280;11809;56.390;-3.266;2022-09-28T10:23:51;99764.75;;;15.14;59.76
23281;BME280;11809;56.390;-3.266;2022-09-28T10:26:34;99768.38;;;15.13;60.14
23281;BME280;11809;56.390;-3.266;2022-09-28T10:29:13;99766.81;;;15.11;59.67
23281;BME280;11809;56.390;-3.266;2022-09-28T10:31:52;99765.00;;;15.11;59.59
23281;BME280;11809;56.390;-3.266;2022-09-28T10:34:28;99768.59;;;15.10;59.79
23281;BME280;11809;56.390;-3.266;2022-09-28T10:36:58;99758.13;;;15.09;59.44
23281;BME280;11809;56.390;-3.266;2022-09-28T10:39:36;99757.06;;;15.11;59.60
23281;BME280;11809;56.390;-3.266;2022-09-28T10:42:11;99751.53;;;15.14;59.75
23281;BME280;11809;56.390;-3.266;2022-09-28T10:44:58;99743.72;;;15.13;59.96
23281;BME280;11809;56.390;-3.266;2022-09-28T10:47:28;99754.44;;;15.11;59.74
23281;BME280;11809;56.390;-3.266;2022-09-28T10:49:59;99748.16;;;15.12;59.83
23281;BME280;11809;56.390;-3.266;2022-09-28T10:52:39;99740.94;;;15.14;59.83
23281;BME280;11809;56.390;-3.266;2022-09-28T10:57:53;99749.88;;;15.13;59.69
23281;BME280;11809;56.390;-3.266;2022-09-28T11:00:38;99752.50;;;15.13;59.51
23281;BME280;11809;56.390;-3.266;2022-09-28T11:03:18;99753.44;;;15.12;59.71
23281;BME280;11809;56.390;-3.266;2022-09-28T11:05:58;99751.53;;;15.14;59.79
23281;BME280;11809;56.390;-3.266;2022-09-28T11:08:35;99749.00;;;15.13;59.83
23281;BME280;11809;56.390;-3.266;2022-09-28T11:11:07;99755.16;;;15.13;59.79
23281;BME280;11809;56.390;-3.266;2022-09-28T11:13:47;99748.16;;;15.12;59.95
23281;BME280;11809;56.390;-3.266;2022-09-28T11:16:24;99754.19;;;15.14;59.96
23281;BME280;11809;56.390;-3.266;2022-09-28T11:18:52;99750.59;;;15.15;59.96
23281;BME280;11809;56.390;-3.266;2022-09-28T11:21:25;99747.00;;;15.16;59.80
23281;BME280;11809;56.390;-3.266;2022-09-28T11:24:05;99749.66;;;15.16;60.03
23281;BME280;11809;56.390;-3.266;2022-09-28T11:26:49;99747.94;;;15.15;59.80
23281;BME280;11809;56.390;-3.266;2022-09-28T11:29:19;99751.31;;;15.17;59.96
23281;BME280;11809;56.390;-3.266;2022-09-28T11:31:48;99746.03;;;15.17;60.04
23281;BME280;11809;56.390;-3.266;2022-09-28T11:34:23;99753.53;;;15.24;60.04
23281;BME280;11809;56.390;-3.266;2022-09-28T11:39:57;99753.53;;;15.24;60.04
23281;BME280;11809;56.390;-3.266;2022-09-28T11:48:14;99755.94;;;15.27;59.99
23281;BME280;11809;56.390;-3.266;2022-09-28T11:53:44;99735.16;;;15.33;60.61
23281;BME280;11809;56.390;-3.266;2022-09-28T11:56:33;99732.91;;;15.40;60.87
23281;BME280;11809;56.390;-3.266;2022-09-28T11:59:14;99737.25;;;15.41;60.60
23281;BME280;11809;56.390;-3.266;2022-09-28T12:02:08;99738.28;;;15.38;60.79
23281;BME280;11809;56.390;-3.266;2022-09-28T12:07:35;99732.91;;;15.40;60.67
23281;BME280;11809;56.390;-3.266;2022-09-28T12:15:50;99731.50;;;15.47;60.96
23281;BME280;11809;56.390;-3.266;2022-09-28T12:18:42;99725.25;;;15.48;61.12
23281;BME280;11809;56.390;-3.266;2022-09-28T12:23:43;99730.94;;;15.54;60.99
23281;BME280;11809;56.390;-3.266;2022-09-28T12:26:32;99721.41;;;15.52;60.43
23281;BME280;11809;56.390;-3.266;2022-09-28T12:29:21;99729.47;;;15.50;60.39
23281;BME280;11809;56.390;-3.266;2022-09-28T12:34:25;99731.19;;;15.51;60.23
23281;BME280;11809;56.390;-3.266;2022-09-28T12:37:07;99726.84;;;15.50;60.11
23281;BME280;11809;56.390;-3.266;2022-09-28T12:51:50;99720.59;;;15.51;59.99
23281;BME280;11809;56.390;-3.266;2022-09-28T13:02:40;99726.72;;;15.52;59.99
23281;BME280;11809;56.390;-3.266;2022-09-28T13:05:57;99728.53;;;15.51;59.96
23281;BME280;11809;56.390;-3.266;2022-09-28T13:08:47;99727.56;;;15.52;60.07
23281;BME280;11809;56.390;-3.266;2022-09-28T13:25:26;99729.63;;;15.49;59.74
23281;BME280;11809;56.390;-3.266;2022-09-28T13:27:58;99730.66;;;15.46;59.98
23281;BME280;11809;56.390;-3.266;2022-09-28T13:30:27;99731.41;;;15.48;59.62
23281;BME280;11809;56.390;-3.266;2022-09-28T13:32:56;99729.84;;;15.46;59.78
23281;BME280;11809;56.390;-3.266;2022-09-28T13:35:23;99738.50;;;15.48;59.78
23281;BME280;11809;56.390;-3.266;2022-09-28T13:49:39;99743.09;;;15.46;59.70
23281;BME280;11809;56.390;-3.266;2022-09-28T14:05:34;99742.19;;;15.45;59.63
23281;BME280;11809;56.390;-3.266;2022-09-28T14:10:51;99732.56;;;15.44;59.63
23281;BME280;11809;56.390;-3.266;2022-09-28T14:16:22;99734.16;;;15.47;59.94
23281;BME280;11809;56.390;-3.266;2022-09-28T14:24:20;99740.63;;;15.43;59.82
23281;BME280;11809;56.390;-3.266;2022-09-28T14:29:31;99747.59;;;15.44;59.70
23281;BME280;11809;56.390;-3.266;2022-09-28T14:32:23;99741.25;;;15.46;59.69
23281;BME280;11809;56.390;-3.266;2022-09-28T14:35:00;99740.63;;;15.43;59.67
23281;BME280;11809;56.390;-3.266;2022-09-28T14:37:36;99744.13;;;15.43;59.69
23281;BME280;11809;56.390;-3.266;2022-09-28T14:40:26;99737.25;;;15.41;59.59
23281;BME280;11809;56.390;-3.266;2022-09-28T14:43:34;99746.13;;;15.40;59.79
23281;BME280;11809;56.390;-3.266;2022-09-28T14:48:48;99753.84;;;15.43;59.98
23281;BME280;11809;56.390;-3.266;2022-09-28T14:59:29;99745.91;;;15.43;59.98
23281;BME280;11809;56.390;-3.266;2022-09-28T15:04:40;99742.53;;;15.41;59.97
23281;BME280;11809;56.390;-3.266;2022-09-28T15:07:27;99740.84;;;15.40;59.93
23281;BME280;11809;56.390;-3.266;2022-09-28T15:09:56;99741.47;;;15.43;60.49
23281;BME280;11809;56.390;-3.266;2022-09-28T15:12:27;99737.66;;;15.47;60.22
23281;BME280;11809;56.390;-3.266;2022-09-28T15:17:44;99733.41;;;15.45;60.27
23281;BME280;11809;56.390;-3.266;2022-09-28T15:22:52;99742.28;;;15.44;59.93
23281;BME280;11809;56.390;-3.266;2022-09-28T15:25:30;99751.03;;;15.46;60.30
23281;BME280;11809;56.390;-3.266;2022-09-28T15:28:15;99748.25;;;15.47;60.25
23281;BME280;11809;56.390;-3.266;2022-09-28T15:30:43;99753.44;;;15.49;60.33
23281;BME280;11809;56.390;-3.266;2022-09-28T15:33:32;99755.25;;;15.48;60.13
23281;BME280;11809;56.390;-3.266;2022-09-28T15:36:24;99765.63;;;15.51;60.47
23281;BME280;11809;56.390;-3.266;2022-09-28T15:39:18;99759.47;;;15.51;60.38
23281;BME280;11809;56.390;-3.266;2022-09-28T15:41:42;99776.19;;;15.51;60.21
23281;BME280;11809;56.390;-3.266;2022-09-28T15:46:41;99774.38;;;15.52;60.28
23281;BME280;11809;56.390;-3.266;2022-09-28T15:49:22;99777.03;;;15.52;60.22
23281;BME280;11809;56.390;-3.266;2022-09-28T15:51:52;99781.38;;;15.53;60.17
23281;BME280;11809;56.390;-3.266;2022-09-28T15:54:26;99781.50;;;15.51;60.23
23281;BME280;11809;56.390;-3.266;2022-09-28T15:56:59;99784.88;;;15.53;60.38
23281;BME280;11809;56.390;-3.266;2022-09-28T15:59:31;99780.16;;;15.57;60.39
23281;BME280;11809;56.390;-3.266;2022-09-28T16:02:07;99779.00;;;15.61;60.30
23281;BME280;11809;56.390;-3.266;2022-09-28T16:07:18;99776.97;;;15.64;60.35
23281;BME280;11809;56.390;-3.266;2022-09-28T16:13:12;99768.69;;;15.69;60.06
23281;BME280;11809;56.390;-3.266;2022-09-28T16:15:27;99772.06;;;15.71;60.15
23281;BME280;11809;56.390;-3.266;2022-09-28T16:23:13;99781.00;;;15.81;60.23
23281;BME280;11809;56.390;-3.266;2022-09-28T16:26:09;99786.47;;;15.91;59.79
23281;BME280;11809;56.390;-3.266;2022-09-28T16:31:21;99787.31;;;16.02;60.18
23281;BME280;11809;56.390;-3.266;2022-09-28T16:33:58;99775.31;;;16.09;60.24
23281;BME280;11809;56.390;-3.266;2022-09-28T16:36:37;99778.22;;;16.17;60.21
23281;BME280;11809;56.390;-3.266;2022-09-28T16:39:05;99775.06;;;16.23;60.00
23281;BME280;11809;56.390;-3.266;2022-09-28T16:41:32;99781.69;;;16.29;59.85
23281;BME280;11809;56.390;-3.266;2022-09-28T16:44:01;99781.38;;;16.33;59.74
23281;BME280;11809;56.390;-3.266;2022-09-28T16:46:34;99790.41;;;16.42;59.59
23281;BME280;11809;56.390;-3.266;2022-09-28T16:49:05;99776.91;;;16.45;59.52
23281;BME280;11809;56.390;-3.266;2022-09-28T16:51:33;99797.56;;;16.53;59.44